sensor_id;sensor_type;location;lat;lon;timestamp;P1;durP1;ratioP1;P2;durP2;ratioP2
11187;SDS011;5650;52.700;7.306;2024-03-07T00:01:59;32.55;;;21.85;;
11187;SDS011;5650;52.700;7.306;2024-03-07T00:04:34;29.92;;;21.10;;
11187;SDS011;5650;52.700;7.306;2024-03-07T00:07:03;35.63;;;22.17;;
11187;SDS011;5650;52.700;7.306;2024-03-07T00:09:31;33.10;;;20.85;;
11187;SDS011;5650;52.700;7.306;2024-03-07T00:12:05;29.48;;;21.60;;
11187;SDS011;5650;52.700;7.306;2024-03-07T00:14:32;31.13;;;20.50;;
11187;SDS011;5650;52.700;7.306;2024-03-07T00:17:00;28.38;;;19.95;;
11187;SDS011;5650;52.700;7.306;2024-03-07T00:19:28;29.88;;;21.70;;
11187;SDS011;5650;52.700;7.306;2024-03-07T00:21:56;32.60;;;21.80;;
11187;SDS011;5650;52.700;7.306;2024-03-07T00:24:28;31.92;;;20.42;;
11187;SDS011;5650;52.700;7.306;2024-03-07T00:26:59;33.55;;;21.60;;
11187;SDS011;5650;52.700;7.306;2024-03-07T00:29:26;39.28;;;22.33;;
11187;SDS011;5650;52.700;7.306;2024-03-07T00:32:04;30.13;;;21.65;;
11187;SDS011;5650;52.700;7.306;2024-03-07T00:34:32;33.38;;;22.38;;
11187;SDS011;5650;52.700;7.306;2024-03-07T00:36:59;31.35;;;21.55;;
11187;SDS011;5650;52.700;7.306;2024-03-07T00:39:35;35.85;;;22.08;;
11187;SDS011;5650;52.700;7.306;2024-03-07T00:42:04;33.15;;;22.05;;
11187;SDS011;5650;52.700;7.306;2024-03-07T00:44:32;37.13;;;23.85;;
11187;SDS011;5650;52.700;7.306;2024-03-07T00:47:03;29.25;;;22.38;;
11187;SDS011;5650;52.700;7.306;2024-03-07T00:49:31;30.70;;;20.83;;
11187;SDS011;5650;52.700;7.306;2024-03-07T00:52:01;34.20;;;22.67;;
11187;SDS011;5650;52.700;7.306;2024-03-07T00:54:28;32.88;;;22.50;;
11187;SDS011;5650;52.700;7.306;2024-03-07T00:56:57;32.70;;;21.30;;
11187;SDS011;5650;52.700;7.306;2024-03-07T00:59:24;33.28;;;21.50;;
11187;SDS011;5650;52.700;7.306;2024-03-07T01:01:55;31.88;;;21.58;;
11187;SDS011;5650;52.700;7.306;2024-03-07T01:04:25;31.33;;;21.70;;
11187;SDS011;5650;52.700;7.306;2024-03-07T01:07:02;32.70;;;21.55;;
11187;SDS011;5650;52.700;7.306;2024-03-07T01:09:29;27.65;;;21.10;;
11187;SDS011;5650;52.700;7.306;2024-03-07T01:12:07;30.25;;;21.00;;
11187;SDS011;5650;52.700;7.306;2024-03-07T01:14:35;32.72;;;21.73;;
11187;SDS011;5650;52.700;7.306;2024-03-07T01:17:02;28.75;;;21.67;;
11187;SDS011;5650;52.700;7.306;2024-03-07T01:19:32;29.10;;;21.90;;
11187;SDS011;5650;52.700;7.306;2024-03-07T01:22:06;29.20;;;21.65;;
11187;SDS011;5650;52.700;7.306;2024-03-07T01:24:33;32.60;;;21.65;;
11187;SDS011;5650;52.700;7.306;2024-03-07T01:27:00;35.20;;;20.80;;
11187;SDS011;5650;52.700;7.306;2024-03-07T01:29:29;32.70;;;22.10;;
11187;SDS011;5650;52.700;7.306;2024-03-07T01:31:57;28.08;;;21.45;;
11187;SDS011;5650;52.700;7.306;2024-03-07T01:34:24;29.25;;;20.70;;
11187;SDS011;5650;52.700;7.306;2024-03-07T01:36:54;30.30;;;21.13;;
11187;SDS011;5650;52.700;7.306;2024-03-07T01:39:33;33.22;;;22.08;;
11187;SDS011;5650;52.700;7.306;2024-03-07T01:42:00;31.40;;;21.20;;
11187;SDS011;5650;52.700;7.306;2024-03-07T01:44:27;33.17;;;21.00;;
11187;SDS011;5650;52.700;7.306;2024-03-07T01:47:03;30.90;;;21.42;;
11187;SDS011;5650;52.700;7.306;2024-03-07T01:49:34;33.97;;;21.10;;
11187;SDS011;5650;52.700;7.306;2024-03-07T01:52:04;29.98;;;21.52;;
11187;SDS011;5650;52.700;7.306;2024-03-07T01:54:32;34.30;;;21.73;;
11187;SDS011;5650;52.700;7.306;2024-03-07T01:56:59;27.98;;;20.65;;
11187;SDS011;5650;52.700;7.306;2024-03-07T01:59:30;30.23;;;19.75;;
11187;SDS011;5650;52.700;7.306;2024-03-07T02:01:58;27.60;;;19.45;;
11187;SDS011;5650;52.700;7.306;2024-03-07T02:04:30;27.92;;;20.25;;
11187;SDS011;5650;52.700;7.306;2024-03-07T02:07:00;30.73;;;20.30;;
11187;SDS011;5650;52.700;7.306;2024-03-07T02:09:27;29.67;;;20.63;;
11187;SDS011;5650;52.700;7.306;2024-03-07T02:11:54;27.27;;;20.13;;
11187;SDS011;5650;52.700;7.306;2024-03-07T02:14:27;25.52;;;18.92;;
11187;SDS011;5650;52.700;7.306;2024-03-07T02:16:56;25.80;;;18.40;;
11187;SDS011;5650;52.700;7.306;2024-03-07T02:19:27;24.55;;;19.25;;
11187;SDS011;5650;52.700;7.306;2024-03-07T02:22:08;25.25;;;18.77;;
11187;SDS011;5650;52.700;7.306;2024-03-07T02:24:35;29.02;;;19.42;;
11187;SDS011;5650;52.700;7.306;2024-03-07T02:27:02;26.95;;;19.05;;
11187;SDS011;5650;52.700;7.306;2024-03-07T02:29:29;27.00;;;19.55;;
11187;SDS011;5650;52.700;7.306;2024-03-07T02:31:56;26.58;;;19.10;;
11187;SDS011;5650;52.700;7.306;2024-03-07T02:34:27;25.17;;;18.55;;
11187;SDS011;5650;52.700;7.306;2024-03-07T02:36:54;26.88;;;18.88;;
11187;SDS011;5650;52.700;7.306;2024-03-07T02:39:26;24.65;;;18.17;;
11187;SDS011;5650;52.700;7.306;2024-03-07T02:41:53;27.05;;;18.58;;
11187;SDS011;5650;52.700;7.306;2024-03-07T02:44:26;28.50;;;18.92;;
11187;SDS011;5650;52.700;7.306;2024-03-07T02:46:54;23.70;;;17.88;;
11187;SDS011;5650;52.700;7.306;2024-03-07T02:49:28;29.33;;;18.30;;
11187;SDS011;5650;52.700;7.306;2024-03-07T02:51:58;22.67;;;16.50;;
11187;SDS011;5650;52.700;7.306;2024-03-07T02:54:29;28.55;;;17.88;;
11187;SDS011;5650;52.700;7.306;2024-03-07T02:56:57;24.48;;;18.20;;
11187;SDS011;5650;52.700;7.306;2024-03-07T02:59:24;21.92;;;17.52;;
11187;SDS011;5650;52.700;7.306;2024-03-07T03:01:55;22.92;;;16.88;;
11187;SDS011;5650;52.700;7.306;2024-03-07T03:04:25;28.13;;;17.20;;
11187;SDS011;5650;52.700;7.306;2024-03-07T03:06:52;21.92;;;17.00;;
11187;SDS011;5650;52.700;7.306;2024-03-07T03:09:22;23.20;;;16.75;;
11187;SDS011;5650;52.700;7.306;2024-03-07T03:11:58;22.70;;;16.92;;
11187;SDS011;5650;52.700;7.306;2024-03-07T03:14:28;26.55;;;18.20;;
11187;SDS011;5650;52.700;7.306;2024-03-07T03:16:55;26.58;;;16.98;;
11187;SDS011;5650;52.700;7.306;2024-03-07T03:19:25;24.38;;;16.92;;
11187;SDS011;5650;52.700;7.306;2024-03-07T03:21:52;22.73;;;16.45;;
11187;SDS011;5650;52.700;7.306;2024-03-07T03:24:20;26.60;;;17.30;;
11187;SDS011;5650;52.700;7.306;2024-03-07T03:26:52;22.08;;;15.98;;
11187;SDS011;5650;52.700;7.306;2024-03-07T03:29:22;28.55;;;17.35;;
11187;SDS011;5650;52.700;7.306;2024-03-07T03:31:50;25.00;;;17.17;;
11187;SDS011;5650;52.700;7.306;2024-03-07T03:34:17;20.15;;;16.55;;
11187;SDS011;5650;52.700;7.306;2024-03-07T03:36:47;22.02;;;16.17;;
11187;SDS011;5650;52.700;7.306;2024-03-07T03:39:14;20.55;;;15.77;;
11187;SDS011;5650;52.700;7.306;2024-03-07T03:41:49;26.02;;;15.65;;
11187;SDS011;5650;52.700;7.306;2024-03-07T03:44:27;20.35;;;15.27;;
11187;SDS011;5650;52.700;7.306;2024-03-07T03:46:54;23.85;;;15.88;;
11187;SDS011;5650;52.700;7.306;2024-03-07T03:49:21;21.67;;;16.08;;
11187;SDS011;5650;52.700;7.306;2024-03-07T03:51:50;22.90;;;16.92;;
11187;SDS011;5650;52.700;7.306;2024-03-07T03:54:20;23.95;;;16.95;;
11187;SDS011;5650;52.700;7.306;2024-03-07T03:56:50;25.02;;;17.00;;
11187;SDS011;5650;52.700;7.306;2024-03-07T03:59:24;21.67;;;16.40;;
11187;SDS011;5650;52.700;7.306;2024-03-07T04:01:52;21.73;;;15.77;;
11187;SDS011;5650;52.700;7.306;2024-03-07T04:04:22;29.02;;;16.63;;
11187;SDS011;5650;52.700;7.306;2024-03-07T04:06:51;21.52;;;16.50;;
11187;SDS011;5650;52.700;7.306;2024-03-07T04:09:18;21.80;;;15.80;;
11187;SDS011;5650;52.700;7.306;2024-03-07T04:11:48;24.77;;;16.55;;
11187;SDS011;5650;52.700;7.306;2024-03-07T04:14:15;21.30;;;16.30;;
11187;SDS011;5650;52.700;7.306;2024-03-07T04:16:46;24.25;;;16.27;;
11187;SDS011;5650;52.700;7.306;2024-03-07T04:19:17;22.40;;;17.25;;
11187;SDS011;5650;52.700;7.306;2024-03-07T04:21:45;20.92;;;16.02;;
11187;SDS011;5650;52.700;7.306;2024-03-07T04:24:12;22.55;;;17.05;;
11187;SDS011;5650;52.700;7.306;2024-03-07T04:26:45;23.33;;;16.70;;
11187;SDS011;5650;52.700;7.306;2024-03-07T04:29:15;22.77;;;16.73;;
11187;SDS011;5650;52.700;7.306;2024-03-07T04:31:42;20.35;;;16.48;;
11187;SDS011;5650;52.700;7.306;2024-03-07T04:34:12;22.10;;;16.08;;
11187;SDS011;5650;52.700;7.306;2024-03-07T04:36:39;19.92;;;15.70;;
11187;SDS011;5650;52.700;7.306;2024-03-07T04:39:06;21.85;;;15.82;;
11187;SDS011;5650;52.700;7.306;2024-03-07T04:41:52;20.17;;;15.48;;
11187;SDS011;5650;52.700;7.306;2024-03-07T04:44:20;21.40;;;16.90;;
11187;SDS011;5650;52.700;7.306;2024-03-07T04:46:50;22.15;;;16.98;;
11187;SDS011;5650;52.700;7.306;2024-03-07T04:49:22;20.70;;;15.38;;
11187;SDS011;5650;52.700;7.306;2024-03-07T04:51:50;24.50;;;16.88;;
11187;SDS011;5650;52.700;7.306;2024-03-07T04:54:17;25.30;;;18.58;;
11187;SDS011;5650;52.700;7.306;2024-03-07T04:56:44;22.98;;;15.30;;
11187;SDS011;5650;52.700;7.306;2024-03-07T04:59:12;23.77;;;16.08;;
11187;SDS011;5650;52.700;7.306;2024-03-07T05:01:43;21.35;;;15.77;;
11187;SDS011;5650;52.700;7.306;2024-03-07T05:04:11;21.77;;;16.15;;
11187;SDS011;5650;52.700;7.306;2024-03-07T05:06:40;23.45;;;16.95;;
11187;SDS011;5650;52.700;7.306;2024-03-07T05:09:17;22.33;;;16.70;;
11187;SDS011;5650;52.700;7.306;2024-03-07T05:11:54;23.30;;;16.58;;
11187;SDS011;5650;52.700;7.306;2024-03-07T05:14:21;23.63;;;16.58;;
11187;SDS011;5650;52.700;7.306;2024-03-07T05:16:49;21.35;;;16.42;;
11187;SDS011;5650;52.700;7.306;2024-03-07T05:19:30;21.98;;;16.30;;
11187;SDS011;5650;52.700;7.306;2024-03-07T05:21:59;20.67;;;16.55;;
11187;SDS011;5650;52.700;7.306;2024-03-07T05:24:26;22.65;;;16.83;;
11187;SDS011;5650;52.700;7.306;2024-03-07T05:26:53;27.42;;;16.67;;
11187;SDS011;5650;52.700;7.306;2024-03-07T05:29:21;23.63;;;16.50;;
11187;SDS011;5650;52.700;7.306;2024-03-07T05:31:49;23.88;;;16.85;;
11187;SDS011;5650;52.700;7.306;2024-03-07T05:34:16;24.02;;;16.70;;
11187;SDS011;5650;52.700;7.306;2024-03-07T05:36:45;22.13;;;18.17;;
11187;SDS011;5650;52.700;7.306;2024-03-07T05:39:14;23.92;;;17.35;;
11187;SDS011;5650;52.700;7.306;2024-03-07T05:41:43;25.35;;;17.67;;
11187;SDS011;5650;52.700;7.306;2024-03-07T05:44:11;23.27;;;16.83;;
11187;SDS011;5650;52.700;7.306;2024-03-07T05:46:39;25.45;;;17.67;;
11187;SDS011;5650;52.700;7.306;2024-03-07T05:49:11;24.77;;;18.05;;
11187;SDS011;5650;52.700;7.306;2024-03-07T05:51:39;28.33;;;18.00;;
11187;SDS011;5650;52.700;7.306;2024-03-07T05:54:07;26.70;;;18.73;;
11187;SDS011;5650;52.700;7.306;2024-03-07T05:56:36;27.25;;;19.38;;
11187;SDS011;5650;52.700;7.306;2024-03-07T05:59:03;24.60;;;18.38;;
11187;SDS011;5650;52.700;7.306;2024-03-07T06:01:32;27.70;;;19.33;;
11187;SDS011;5650;52.700;7.306;2024-03-07T06:03:59;26.08;;;20.00;;
11187;SDS011;5650;52.700;7.306;2024-03-07T06:06:27;28.48;;;20.42;;
11187;SDS011;5650;52.700;7.306;2024-03-07T06:08:57;31.25;;;21.27;;
11187;SDS011;5650;52.700;7.306;2024-03-07T06:11:24;25.63;;;20.58;;
11187;SDS011;5650;52.700;7.306;2024-03-07T06:13:52;29.13;;;20.95;;
11187;SDS011;5650;52.700;7.306;2024-03-07T06:16:20;27.52;;;21.13;;
11187;SDS011;5650;52.700;7.306;2024-03-07T06:18:47;26.90;;;19.67;;
11187;SDS011;5650;52.700;7.306;2024-03-07T06:21:14;28.80;;;22.30;;
11187;SDS011;5650;52.700;7.306;2024-03-07T06:23:47;28.75;;;21.55;;
11187;SDS011;5650;52.700;7.306;2024-03-07T06:26:26;34.15;;;21.33;;
11187;SDS011;5650;52.700;7.306;2024-03-07T06:29:04;33.67;;;21.67;;
11187;SDS011;5650;52.700;7.306;2024-03-07T06:31:31;31.33;;;21.00;;
11187;SDS011;5650;52.700;7.306;2024-03-07T06:33:59;32.63;;;21.92;;
11187;SDS011;5650;52.700;7.306;2024-03-07T06:36:33;32.08;;;22.50;;
11187;SDS011;5650;52.700;7.306;2024-03-07T06:39:12;27.70;;;21.92;;
11187;SDS011;5650;52.700;7.306;2024-03-07T06:41:43;33.95;;;22.00;;
11187;SDS011;5650;52.700;7.306;2024-03-07T06:44:13;31.00;;;22.27;;
11187;SDS011;5650;52.700;7.306;2024-03-07T06:46:42;29.75;;;22.02;;
11187;SDS011;5650;52.700;7.306;2024-03-07T06:49:13;33.03;;;21.58;;
11187;SDS011;5650;52.700;7.306;2024-03-07T06:51:40;34.78;;;23.67;;
11187;SDS011;5650;52.700;7.306;2024-03-07T06:54:11;30.23;;;23.15;;
11187;SDS011;5650;52.700;7.306;2024-03-07T06:56:41;38.00;;;24.15;;
11187;SDS011;5650;52.700;7.306;2024-03-07T06:59:09;34.17;;;24.63;;
11187;SDS011;5650;52.700;7.306;2024-03-07T07:01:41;35.28;;;24.48;;
11187;SDS011;5650;52.700;7.306;2024-03-07T07:04:11;33.05;;;25.48;;
11187;SDS011;5650;52.700;7.306;2024-03-07T07:06:44;37.17;;;25.75;;
11187;SDS011;5650;52.700;7.306;2024-03-07T07:09:12;38.50;;;27.60;;
11187;SDS011;5650;52.700;7.306;2024-03-07T07:11:44;43.42;;;30.90;;
11187;SDS011;5650;52.700;7.306;2024-03-07T07:14:17;49.72;;;33.83;;
11187;SDS011;5650;52.700;7.306;2024-03-07T07:16:45;47.05;;;33.03;;
11187;SDS011;5650;52.700;7.306;2024-03-07T07:19:13;54.40;;;35.63;;
11187;SDS011;5650;52.700;7.306;2024-03-07T07:21:40;59.20;;;35.05;;
11187;SDS011;5650;52.700;7.306;2024-03-07T07:24:15;49.38;;;35.00;;
11187;SDS011;5650;52.700;7.306;2024-03-07T07:26:44;61.22;;;35.55;;
11187;SDS011;5650;52.700;7.306;2024-03-07T07:29:14;56.55;;;33.35;;
11187;SDS011;5650;52.700;7.306;2024-03-07T07:31:45;59.35;;;37.17;;
11187;SDS011;5650;52.700;7.306;2024-03-07T07:34:13;55.00;;;34.05;;
11187;SDS011;5650;52.700;7.306;2024-03-07T07:36:40;61.88;;;35.38;;
11187;SDS011;5650;52.700;7.306;2024-03-07T07:39:10;66.95;;;36.72;;
11187;SDS011;5650;52.700;7.306;2024-03-07T07:41:48;60.90;;;36.60;;
11187;SDS011;5650;52.700;7.306;2024-03-07T07:44:18;62.22;;;37.85;;
11187;SDS011;5650;52.700;7.306;2024-03-07T07:46:52;59.88;;;36.47;;
11187;SDS011;5650;52.700;7.306;2024-03-07T07:49:20;90.47;;;39.45;;
11187;SDS011;5650;52.700;7.306;2024-03-07T07:51:53;61.10;;;36.55;;
11187;SDS011;5650;52.700;7.306;2024-03-07T07:54:20;58.40;;;36.75;;
11187;SDS011;5650;52.700;7.306;2024-03-07T07:56:51;68.90;;;38.33;;
11187;SDS011;5650;52.700;7.306;2024-03-07T07:59:21;54.67;;;34.45;;
11187;SDS011;5650;52.700;7.306;2024-03-07T08:01:48;69.78;;;35.47;;
11187;SDS011;5650;52.700;7.306;2024-03-07T08:04:21;53.05;;;34.17;;
11187;SDS011;5650;52.700;7.306;2024-03-07T08:06:49;49.08;;;32.75;;
11187;SDS011;5650;52.700;7.306;2024-03-07T08:09:17;62.88;;;33.95;;
11187;SDS011;5650;52.700;7.306;2024-03-07T08:11:49;56.03;;;35.15;;
11187;SDS011;5650;52.700;7.306;2024-03-07T08:14:17;70.00;;;34.33;;
11187;SDS011;5650;52.700;7.306;2024-03-07T08:16:50;52.17;;;34.72;;
11187;SDS011;5650;52.700;7.306;2024-03-07T08:19:17;53.90;;;33.20;;
11187;SDS011;5650;52.700;7.306;2024-03-07T08:21:46;54.13;;;32.97;;
11187;SDS011;5650;52.700;7.306;2024-03-07T08:24:16;54.22;;;31.23;;
11187;SDS011;5650;52.700;7.306;2024-03-07T08:26:46;49.35;;;31.80;;
11187;SDS011;5650;52.700;7.306;2024-03-07T08:29:16;48.85;;;31.40;;
11187;SDS011;5650;52.700;7.306;2024-03-07T08:31:49;45.20;;;28.40;;
11187;SDS011;5650;52.700;7.306;2024-03-07T08:34:16;42.78;;;29.73;;
11187;SDS011;5650;52.700;7.306;2024-03-07T08:36:48;48.97;;;29.17;;
11187;SDS011;5650;52.700;7.306;2024-03-07T08:39:15;45.15;;;30.15;;
11187;SDS011;5650;52.700;7.306;2024-03-07T08:41:47;48.85;;;27.67;;
11187;SDS011;5650;52.700;7.306;2024-03-07T08:44:14;44.13;;;28.50;;
11187;SDS011;5650;52.700;7.306;2024-03-07T08:46:42;36.70;;;25.83;;
11187;SDS011;5650;52.700;7.306;2024-03-07T08:49:12;34.65;;;25.40;;
11187;SDS011;5650;52.700;7.306;2024-03-07T08:51:42;36.53;;;24.67;;
11187;SDS011;5650;52.700;7.306;2024-03-07T08:54:24;35.28;;;25.73;;
11187;SDS011;5650;52.700;7.306;2024-03-07T08:56:52;31.65;;;24.10;;
11187;SDS011;5650;52.700;7.306;2024-03-07T08:59:19;35.83;;;25.55;;
11187;SDS011;5650;52.700;7.306;2024-03-07T09:01:49;31.65;;;23.73;;
11187;SDS011;5650;52.700;7.306;2024-03-07T09:04:26;35.13;;;23.08;;
11187;SDS011;5650;52.700;7.306;2024-03-07T09:06:57;38.75;;;23.42;;
11187;SDS011;5650;52.700;7.306;2024-03-07T09:09:25;29.35;;;21.35;;
11187;SDS011;5650;52.700;7.306;2024-03-07T09:11:52;29.08;;;21.80;;
11187;SDS011;5650;52.700;7.306;2024-03-07T09:14:19;29.38;;;22.20;;
11187;SDS011;5650;52.700;7.306;2024-03-07T09:16:47;26.88;;;21.17;;
11187;SDS011;5650;52.700;7.306;2024-03-07T09:19:14;28.92;;;19.92;;
11187;SDS011;5650;52.700;7.306;2024-03-07T09:21:45;25.92;;;20.88;;
11187;SDS011;5650;52.700;7.306;2024-03-07T09:24:17;25.48;;;21.08;;
11187;SDS011;5650;52.700;7.306;2024-03-07T09:26:51;27.90;;;21.05;;
11187;SDS011;5650;52.700;7.306;2024-03-07T09:29:24;28.98;;;20.92;;
11187;SDS011;5650;52.700;7.306;2024-03-07T09:31:55;30.67;;;22.48;;
11187;SDS011;5650;52.700;7.306;2024-03-07T09:34:25;26.55;;;20.35;;
11187;SDS011;5650;52.700;7.306;2024-03-07T09:36:52;27.10;;;20.77;;
11187;SDS011;5650;52.700;7.306;2024-03-07T09:39:20;25.75;;;20.30;;
11187;SDS011;5650;52.700;7.306;2024-03-07T09:41:51;29.30;;;20.35;;
11187;SDS011;5650;52.700;7.306;2024-03-07T09:44:20;26.65;;;20.65;;
11187;SDS011;5650;52.700;7.306;2024-03-07T09:46:52;24.90;;;19.13;;
11187;SDS011;5650;52.700;7.306;2024-03-07T09:49:21;25.80;;;19.40;;
11187;SDS011;5650;52.700;7.306;2024-03-07T09:51:56;26.13;;;20.27;;
11187;SDS011;5650;52.700;7.306;2024-03-07T09:54:26;24.92;;;19.65;;
11187;SDS011;5650;52.700;7.306;2024-03-07T09:56:56;27.88;;;19.80;;
11187;SDS011;5650;52.700;7.306;2024-03-07T09:59:36;26.50;;;19.77;;
11187;SDS011;5650;52.700;7.306;2024-03-07T10:02:08;31.05;;;21.08;;
11187;SDS011;5650;52.700;7.306;2024-03-07T10:04:39;26.38;;;19.35;;
11187;SDS011;5650;52.700;7.306;2024-03-07T10:07:17;26.48;;;19.60;;
11187;SDS011;5650;52.700;7.306;2024-03-07T10:09:54;25.88;;;19.10;;
11187;SDS011;5650;52.700;7.306;2024-03-07T10:12:26;25.63;;;19.73;;
11187;SDS011;5650;52.700;7.306;2024-03-07T10:14:55;22.83;;;18.30;;
11187;SDS011;5650;52.700;7.306;2024-03-07T10:17:23;26.95;;;19.80;;
11187;SDS011;5650;52.700;7.306;2024-03-07T10:19:51;26.30;;;19.67;;
11187;SDS011;5650;52.700;7.306;2024-03-07T10:22:19;26.48;;;19.20;;
11187;SDS011;5650;52.700;7.306;2024-03-07T10:24:50;26.92;;;18.80;;
11187;SDS011;5650;52.700;7.306;2024-03-07T10:27:18;24.58;;;19.55;;
11187;SDS011;5650;52.700;7.306;2024-03-07T10:29:48;25.38;;;18.40;;
11187;SDS011;5650;52.700;7.306;2024-03-07T10:32:19;26.38;;;17.77;;
11187;SDS011;5650;52.700;7.306;2024-03-07T10:34:53;26.58;;;18.42;;
11187;SDS011;5650;52.700;7.306;2024-03-07T10:37:23;23.02;;;17.73;;
11187;SDS011;5650;52.700;7.306;2024-03-07T10:39:57;24.67;;;17.33;;
11187;SDS011;5650;52.700;7.306;2024-03-07T10:42:24;27.33;;;18.98;;
11187;SDS011;5650;52.700;7.306;2024-03-07T10:45:00;27.40;;;20.25;;
11187;SDS011;5650;52.700;7.306;2024-03-07T10:47:36;28.42;;;20.25;;
11187;SDS011;5650;52.700;7.306;2024-03-07T10:50:10;31.33;;;21.75;;
11187;SDS011;5650;52.700;7.306;2024-03-07T10:52:48;31.35;;;21.00;;
11187;SDS011;5650;52.700;7.306;2024-03-07T10:55:23;31.95;;;21.63;;
11187;SDS011;5650;52.700;7.306;2024-03-07T10:58:02;33.63;;;21.42;;
11187;SDS011;5650;52.700;7.306;2024-03-07T11:00:40;34.85;;;22.67;;
11187;SDS011;5650;52.700;7.306;2024-03-07T11:03:13;37.22;;;23.63;;
11187;SDS011;5650;52.700;7.306;2024-03-07T11:05:41;37.25;;;23.92;;
11187;SDS011;5650;52.700;7.306;2024-03-07T11:08:20;41.42;;;24.70;;
11187;SDS011;5650;52.700;7.306;2024-03-07T11:10:48;43.00;;;27.05;;
11187;SDS011;5650;52.700;7.306;2024-03-07T11:13:18;44.63;;;28.83;;
11187;SDS011;5650;52.700;7.306;2024-03-07T11:15:53;47.78;;;30.20;;
11187;SDS011;5650;52.700;7.306;2024-03-07T11:18:24;50.42;;;28.88;;
11187;SDS011;5650;52.700;7.306;2024-03-07T11:20:51;55.03;;;30.25;;
11187;SDS011;5650;52.700;7.306;2024-03-07T11:23:25;52.53;;;30.40;;
11187;SDS011;5650;52.700;7.306;2024-03-07T11:26:02;52.78;;;30.40;;
11187;SDS011;5650;52.700;7.306;2024-03-07T11:28:35;59.28;;;31.23;;
11187;SDS011;5650;52.700;7.306;2024-03-07T11:31:08;58.72;;;32.30;;
11187;SDS011;5650;52.700;7.306;2024-03-07T11:36:44;53.00;;;29.38;;
11187;SDS011;5650;52.700;7.306;2024-03-07T11:42:19;46.33;;;27.98;;
11187;SDS011;5650;52.700;7.306;2024-03-07T11:44:50;47.78;;;27.05;;
11187;SDS011;5650;52.700;7.306;2024-03-07T11:47:22;45.60;;;26.73;;
11187;SDS011;5650;52.700;7.306;2024-03-07T11:49:52;48.60;;;27.05;;
11187;SDS011;5650;52.700;7.306;2024-03-07T11:52:19;54.63;;;29.38;;
11187;SDS011;5650;52.700;7.306;2024-03-07T11:54:46;54.03;;;30.50;;
11187;SDS011;5650;52.700;7.306;2024-03-07T11:57:17;61.38;;;35.10;;
11187;SDS011;5650;52.700;7.306;2024-03-07T11:59:54;63.90;;;33.75;;
11187;SDS011;5650;52.700;7.306;2024-03-07T12:02:26;68.45;;;35.58;;
11187;SDS011;5650;52.700;7.306;2024-03-07T12:04:57;65.90;;;35.15;;
11187;SDS011;5650;52.700;7.306;2024-03-07T12:10:08;65.43;;;34.67;;
11187;SDS011;5650;52.700;7.306;2024-03-07T12:12:38;65.65;;;34.60;;
11187;SDS011;5650;52.700;7.306;2024-03-07T12:15:07;62.67;;;34.35;;
11187;SDS011;5650;52.700;7.306;2024-03-07T12:17:46;66.95;;;32.88;;
11187;SDS011;5650;52.700;7.306;2024-03-07T12:20:14;62.72;;;32.97;;
11187;SDS011;5650;52.700;7.306;2024-03-07T12:22:58;65.70;;;32.97;;
11187;SDS011;5650;52.700;7.306;2024-03-07T12:25:27;59.22;;;30.85;;
11187;SDS011;5650;52.700;7.306;2024-03-07T12:28:12;54.88;;;31.42;;
11187;SDS011;5650;52.700;7.306;2024-03-07T12:30:48;61.25;;;32.72;;
11187;SDS011;5650;52.700;7.306;2024-03-07T12:33:18;55.35;;;32.67;;
11187;SDS011;5650;52.700;7.306;2024-03-07T12:35:54;54.10;;;30.38;;
11187;SDS011;5650;52.700;7.306;2024-03-07T12:38:27;54.47;;;29.20;;
11187;SDS011;5650;52.700;7.306;2024-03-07T12:41:04;51.55;;;27.98;;
11187;SDS011;5650;52.700;7.306;2024-03-07T12:43:35;50.13;;;29.15;;
11187;SDS011;5650;52.700;7.306;2024-03-07T12:46:07;45.80;;;25.85;;
11187;SDS011;5650;52.700;7.306;2024-03-07T12:48:40;46.08;;;25.27;;
11187;SDS011;5650;52.700;7.306;2024-03-07T12:51:18;44.40;;;25.88;;
11187;SDS011;5650;52.700;7.306;2024-03-07T12:53:47;37.75;;;24.65;;
11187;SDS011;5650;52.700;7.306;2024-03-07T12:56:26;41.80;;;24.33;;
11187;SDS011;5650;52.700;7.306;2024-03-07T12:58:59;41.90;;;24.88;;
11187;SDS011;5650;52.700;7.306;2024-03-07T13:01:26;42.30;;;24.15;;
11187;SDS011;5650;52.700;7.306;2024-03-07T13:03:55;42.40;;;24.95;;
11187;SDS011;5650;52.700;7.306;2024-03-07T13:06:25;34.72;;;20.75;;
11187;SDS011;5650;52.700;7.306;2024-03-07T13:08:54;35.33;;;21.63;;
11187;SDS011;5650;52.700;7.306;2024-03-07T13:11:25;34.15;;;21.23;;
11187;SDS011;5650;52.700;7.306;2024-03-07T13:13:55;30.10;;;20.40;;
11187;SDS011;5650;52.700;7.306;2024-03-07T13:16:23;29.70;;;19.17;;
11187;SDS011;5650;52.700;7.306;2024-03-07T13:18:52;31.88;;;19.17;;
11187;SDS011;5650;52.700;7.306;2024-03-07T13:21:21;28.05;;;19.30;;
11187;SDS011;5650;52.700;7.306;2024-03-07T13:23:52;25.58;;;17.40;;
11187;SDS011;5650;52.700;7.306;2024-03-07T13:26:21;27.55;;;17.60;;
11187;SDS011;5650;52.700;7.306;2024-03-07T13:28:57;25.33;;;17.33;;
11187;SDS011;5650;52.700;7.306;2024-03-07T13:31:26;26.88;;;16.48;;
11187;SDS011;5650;52.700;7.306;2024-03-07T13:34:02;25.88;;;17.33;;
11187;SDS011;5650;52.700;7.306;2024-03-07T13:36:39;24.15;;;16.67;;
11187;SDS011;5650;52.700;7.306;2024-03-07T13:39:07;28.63;;;18.52;;
11187;SDS011;5650;52.700;7.306;2024-03-07T13:41:36;26.58;;;16.73;;
11187;SDS011;5650;52.700;7.306;2024-03-07T13:44:04;26.42;;;16.60;;
11187;SDS011;5650;52.700;7.306;2024-03-07T13:46:31;27.73;;;16.60;;
11187;SDS011;5650;52.700;7.306;2024-03-07T13:48:58;28.95;;;17.85;;
11187;SDS011;5650;52.700;7.306;2024-03-07T13:51:32;26.35;;;18.13;;
11187;SDS011;5650;52.700;7.306;2024-03-07T13:54:03;31.15;;;17.98;;
11187;SDS011;5650;52.700;7.306;2024-03-07T13:56:52;30.05;;;16.92;;
11187;SDS011;5650;52.700;7.306;2024-03-07T14:08:39;29.45;;;19.10;;
11187;SDS011;5650;52.700;7.306;2024-03-07T14:17:49;35.75;;;20.52;;
11187;SDS011;5650;52.700;7.306;2024-03-07T14:23:35;32.28;;;20.58;;
11187;SDS011;5650;52.700;7.306;2024-03-07T14:26:14;30.55;;;19.20;;
11187;SDS011;5650;52.700;7.306;2024-03-07T14:29:20;32.38;;;19.13;;
11187;SDS011;5650;52.700;7.306;2024-03-07T14:31:55;33.22;;;20.08;;
11187;SDS011;5650;52.700;7.306;2024-03-07T14:34:28;29.83;;;19.77;;
11187;SDS011;5650;52.700;7.306;2024-03-07T14:37:09;36.17;;;21.10;;
11187;SDS011;5650;52.700;7.306;2024-03-07T14:39:44;32.38;;;19.80;;
11187;SDS011;5650;52.700;7.306;2024-03-07T14:42:16;31.38;;;19.35;;
11187;SDS011;5650;52.700;7.306;2024-03-07T14:44:44;28.80;;;19.27;;
11187;SDS011;5650;52.700;7.306;2024-03-07T14:47:13;26.98;;;18.75;;
11187;SDS011;5650;52.700;7.306;2024-03-07T14:49:44;26.38;;;16.80;;
11187;SDS011;5650;52.700;7.306;2024-03-07T14:52:12;30.65;;;18.00;;
11187;SDS011;5650;52.700;7.306;2024-03-07T14:54:40;26.55;;;16.65;;
11187;SDS011;5650;52.700;7.306;2024-03-07T14:57:08;26.13;;;16.38;;
11187;SDS011;5650;52.700;7.306;2024-03-07T14:59:39;27.92;;;17.45;;
11187;SDS011;5650;52.700;7.306;2024-03-07T15:02:06;25.48;;;16.27;;
11187;SDS011;5650;52.700;7.306;2024-03-07T15:04:38;25.65;;;16.77;;
11187;SDS011;5650;52.700;7.306;2024-03-07T15:07:14;24.13;;;16.80;;
11187;SDS011;5650;52.700;7.306;2024-03-07T15:09:44;30.58;;;17.17;;
11187;SDS011;5650;52.700;7.306;2024-03-07T15:12:11;27.05;;;16.05;;
11187;SDS011;5650;52.700;7.306;2024-03-07T15:14:39;28.77;;;17.20;;
11187;SDS011;5650;52.700;7.306;2024-03-07T15:17:06;27.52;;;16.60;;
11187;SDS011;5650;52.700;7.306;2024-03-07T15:19:39;25.90;;;16.42;;
11187;SDS011;5650;52.700;7.306;2024-03-07T15:22:12;32.25;;;17.52;;